الصفحة الرئيسية
METAR-TAF:

METAR-TAF

مطار :

مطار رييكا

رييكا, كرواتيا

دائرة عرض: 45-13N, خط طول: 014-35E, ارتفاع: 85 متر

مراقبة الطقس الحالي

تاريخ ووقت الإصدار 19 دقيقة قبل الساعة 12:00UTC
ريح 5 عقدة من الغرب, الاتجاه يتراوح بين الجنوب/الجنوب الغربي و الشمال الغربي
درجة الحرارة 8°درجة مئوية
الرطوبة 42%
ضغط 1014 hPa
الرؤية 10 كم أو أكثر
غيوم قليلة على ارتفاع 4300 قدم

METAR: LDRI 261200Z 26005KT 200V310 9999 FEW043 08/M04 Q1014

زمن: 13:19 (12:19 UTC)

توقعات

تاريخ ووقت الإصدار 54 دقيقة قبل الساعة 11:25UTC
التوقعات صالحة من26 الساعة 12 UTC إلى 27 الساعة 12 UTC
ريح 2 عقدةمن اتجاهات متغيرة
الرؤية 10 كم أو أكثر
الغيوم لا تقل 1500 م ولا وجود لمزنة ركامية السحاب الأسود

TAF: LDRI 261125Z 2612/2712 VRB02KT CAVOK TX08/2612Z TNM02/2705Z

أرصاد الطقس والتوقعات من أكثر من 4000 مطار (تقارير الطقس للمطار METAR والتنبؤ بالطقس بالمطارTAF).

المحطات المتاحة هي النقط الصفراء والحمراء على الخريطة.

حرك المؤشر فوق النقطة لمعرفة اسم المحطة.

ثم انقر لمعرفة أرصاد وتوقعات الطقس.

لتغيير الخارطة: اضغط على الأزرار الخضراء مع رمز الصليب الأسود للتكبير. على الزر الأخضر مع شرطة للتصغير، أو على الأسهم الخضراء للخرائط المجاورة.


METAR-TAF: